sensor_id;sensor_type;location;lat;lon;timestamp;temperature;humidity
20732;DHT22;10527;52.124;5.196;2022-10-31T00:01:43;14.00;99.90
20732;DHT22;10527;52.124;5.196;2022-10-31T00:04:10;14.00;99.90
20732;DHT22;10527;52.124;5.196;2022-10-31T00:06:37;14.00;99.90
20732;DHT22;10527;52.124;5.196;2022-10-31T00:09:25;14.00;99.90
20732;DHT22;10527;52.124;5.196;2022-10-31T00:11:54;14.20;99.90
20732;DHT22;10527;52.124;5.196;2022-10-31T00:14:21;14.10;99.90
20732;DHT22;10527;52.124;5.196;2022-10-31T00:16:48;14.00;99.90
20732;DHT22;10527;52.124;5.196;2022-10-31T00:19:14;14.00;99.90
20732;DHT22;10527;52.124;5.196;2022-10-31T00:21:41;14.00;99.90
20732;DHT22;10527;52.124;5.196;2022-10-31T00:24:08;13.90;99.90
20732;DHT22;10527;52.124;5.196;2022-10-31T00:26:35;13.90;99.90
20732;DHT22;10527;52.124;5.196;2022-10-31T00:29:01;13.90;99.90
20732;DHT22;10527;52.124;5.196;2022-10-31T00:31:29;14.00;99.90
20732;DHT22;10527;52.124;5.196;2022-10-31T00:33:57;14.00;99.90
20732;DHT22;10527;52.124;5.196;2022-10-31T00:36:24;13.90;99.90
20732;DHT22;10527;52.124;5.196;2022-10-31T00:38:51;13.80;99.90
20732;DHT22;10527;52.124;5.196;2022-10-31T00:41:18;13.80;99.90
20732;DHT22;10527;52.124;5.196;2022-10-31T00:43:45;13.90;99.90
20732;DHT22;10527;52.124;5.196;2022-10-31T00:46:13;13.90;99.90
20732;DHT22;10527;52.124;5.196;2022-10-31T00:48:40;13.80;99.90
20732;DHT22;10527;52.124;5.196;2022-10-31T00:51:07;13.90;99.90
20732;DHT22;10527;52.124;5.196;2022-10-31T00:53:36;13.90;99.90
20732;DHT22;10527;52.124;5.196;2022-10-31T00:56:03;13.90;99.90
20732;DHT22;10527;52.124;5.196;2022-10-31T00:58:30;13.90;99.90
20732;DHT22;10527;52.124;5.196;2022-10-31T01:01:03;13.80;99.90
20732;DHT22;10527;52.124;5.196;2022-10-31T01:03:32;13.80;99.90
20732;DHT22;10527;52.124;5.196;2022-10-31T01:06:03;13.70;99.90
20732;DHT22;10527;52.124;5.196;2022-10-31T01:08:36;13.60;99.90
20732;DHT22;10527;52.124;5.196;2022-10-31T01:11:10;13.60;99.90
20732;DHT22;10527;52.124;5.196;2022-10-31T01:13:38;13.70;99.90
20732;DHT22;10527;52.124;5.196;2022-10-31T01:16:07;13.60;99.90
20732;DHT22;10527;52.124;5.196;2022-10-31T01:18:42;13.50;99.90
20732;DHT22;10527;52.124;5.196;2022-10-31T01:21:17;13.40;99.90
20732;DHT22;10527;52.124;5.196;2022-10-31T01:23:46;13.50;99.90
20732;DHT22;10527;52.124;5.196;2022-10-31T01:26:15;13.50;99.90
20732;DHT22;10527;52.124;5.196;2022-10-31T01:28:51;13.40;99.90
20732;DHT22;10527;52.124;5.196;2022-10-31T01:31:25;13.40;99.90
20732;DHT22;10527;52.124;5.196;2022-10-31T01:33:56;13.40;99.90
20732;DHT22;10527;52.124;5.196;2022-10-31T01:36:29;13.30;99.90
20732;DHT22;10527;52.124;5.196;2022-10-31T01:39:03;13.40;99.90
20732;DHT22;10527;52.124;5.196;2022-10-31T01:41:34;13.40;99.90
20732;DHT22;10527;52.124;5.196;2022-10-31T01:46:46;13.20;99.90
20732;DHT22;10527;52.124;5.196;2022-10-31T01:49:28;13.20;99.90
20732;DHT22;10527;52.124;5.196;2022-10-31T01:52:09;13.20;99.90
20732;DHT22;10527;52.124;5.196;2022-10-31T01:54:42;13.20;99.90
20732;DHT22;10527;52.124;5.196;2022-10-31T01:57:15;13.20;99.90
20732;DHT22;10527;52.124;5.196;2022-10-31T01:59:48;13.10;99.90
20732;DHT22;10527;52.124;5.196;2022-10-31T02:02:18;13.10;99.90
20732;DHT22;10527;52.124;5.196;2022-10-31T02:04:47;13.10;99.90
20732;DHT22;10527;52.124;5.196;2022-10-31T02:07:18;13.00;99.90
20732;DHT22;10527;52.124;5.196;2022-10-31T02:09:53;12.90;99.90
20732;DHT22;10527;52.124;5.196;2022-10-31T02:12:21;12.80;99.90
20732;DHT22;10527;52.124;5.196;2022-10-31T02:14:48;12.90;99.90
20732;DHT22;10527;52.124;5.196;2022-10-31T02:17:15;12.90;99.90
20732;DHT22;10527;52.124;5.196;2022-10-31T02:26:03;12.70;99.90
20732;DHT22;10527;52.124;5.196;2022-10-31T02:37:50;12.60;99.90
20732;DHT22;10527;52.124;5.196;2022-10-31T02:43:28;12.50;99.90
20732;DHT22;10527;52.124;5.196;2022-10-31T02:48:55;12.50;99.90
20732;DHT22;10527;52.124;5.196;2022-10-31T02:51:27;12.40;99.90
20732;DHT22;10527;52.124;5.196;2022-10-31T02:53:54;12.40;99.90
20732;DHT22;10527;52.124;5.196;2022-10-31T02:56:21;12.40;99.90
20732;DHT22;10527;52.124;5.196;2022-10-31T02:59:05;12.30;99.90
20732;DHT22;10527;52.124;5.196;2022-10-31T03:01:55;12.30;99.90
20732;DHT22;10527;52.124;5.196;2022-10-31T03:05:32;12.20;99.90
20732;DHT22;10527;52.124;5.196;2022-10-31T03:11:18;12.20;99.90
20732;DHT22;10527;52.124;5.196;2022-10-31T03:14:17;12.10;99.90
20732;DHT22;10527;52.124;5.196;2022-10-31T03:16:51;12.00;99.90
20732;DHT22;10527;52.124;5.196;2022-10-31T03:19:27;12.10;99.90
20732;DHT22;10527;52.124;5.196;2022-10-31T03:22:10;12.00;99.90
20732;DHT22;10527;52.124;5.196;2022-10-31T03:24:45;12.00;99.90
20732;DHT22;10527;52.124;5.196;2022-10-31T03:27:20;12.00;99.90
20732;DHT22;10527;52.124;5.196;2022-10-31T03:29:54;12.00;99.90
20732;DHT22;10527;52.124;5.196;2022-10-31T03:32:27;11.90;99.90
20732;DHT22;10527;52.124;5.196;2022-10-31T03:35:01;11.90;99.90
20732;DHT22;10527;52.124;5.196;2022-10-31T03:37:34;11.90;99.90
20732;DHT22;10527;52.124;5.196;2022-10-31T03:40:04;11.90;99.90
20732;DHT22;10527;52.124;5.196;2022-10-31T03:42:38;11.80;99.90
20732;DHT22;10527;52.124;5.196;2022-10-31T03:45:14;11.80;99.90
20732;DHT22;10527;52.124;5.196;2022-10-31T03:47:48;11.80;99.90
20732;DHT22;10527;52.124;5.196;2022-10-31T03:50:15;11.90;99.90
20732;DHT22;10527;52.124;5.196;2022-10-31T03:52:57;11.80;99.90
20732;DHT22;10527;52.124;5.196;2022-10-31T03:55:49;11.80;99.90
20732;DHT22;10527;52.124;5.196;2022-10-31T03:58:33;11.80;99.90
20732;DHT22;10527;52.124;5.196;2022-10-31T04:01:11;11.70;99.90
20732;DHT22;10527;52.124;5.196;2022-10-31T04:03:44;11.70;99.90
20732;DHT22;10527;52.124;5.196;2022-10-31T04:06:13;11.60;99.90
20732;DHT22;10527;52.124;5.196;2022-10-31T04:08:51;11.60;99.90
20732;DHT22;10527;52.124;5.196;2022-10-31T04:11:27;11.60;99.90
20732;DHT22;10527;52.124;5.196;2022-10-31T04:13:58;11.60;99.90
20732;DHT22;10527;52.124;5.196;2022-10-31T04:16:28;11.60;99.90
20732;DHT22;10527;52.124;5.196;2022-10-31T04:18:55;11.60;99.90
20732;DHT22;10527;52.124;5.196;2022-10-31T04:21:31;11.50;99.90
20732;DHT22;10527;52.124;5.196;2022-10-31T04:23:59;11.40;99.90
20732;DHT22;10527;52.124;5.196;2022-10-31T04:26:25;11.50;99.90
20732;DHT22;10527;52.124;5.196;2022-10-31T04:28:52;11.50;99.90
20732;DHT22;10527;52.124;5.196;2022-10-31T04:31:32;11.50;99.90
20732;DHT22;10527;52.124;5.196;2022-10-31T04:34:01;11.50;99.90
20732;DHT22;10527;52.124;5.196;2022-10-31T04:36:28;11.40;99.90
20732;DHT22;10527;52.124;5.196;2022-10-31T04:38:55;11.50;99.90
20732;DHT22;10527;52.124;5.196;2022-10-31T04:41:21;11.50;99.90
20732;DHT22;10527;52.124;5.196;2022-10-31T04:43:48;11.30;99.90
20732;DHT22;10527;52.124;5.196;2022-10-31T04:46:15;11.30;99.90
20732;DHT22;10527;52.124;5.196;2022-10-31T04:48:43;11.30;99.90
20732;DHT22;10527;52.124;5.196;2022-10-31T04:51:09;11.20;99.90
20732;DHT22;10527;52.124;5.196;2022-10-31T04:53:37;11.20;99.90
20732;DHT22;10527;52.124;5.196;2022-10-31T04:56:04;11.20;99.90
20732;DHT22;10527;52.124;5.196;2022-10-31T04:58:31;11.20;99.90
20732;DHT22;10527;52.124;5.196;2022-10-31T05:01:03;11.20;99.90
20732;DHT22;10527;52.124;5.196;2022-10-31T05:03:31;11.10;99.90
20732;DHT22;10527;52.124;5.196;2022-10-31T05:05:57;11.20;99.90
20732;DHT22;10527;52.124;5.196;2022-10-31T05:08:24;11.20;99.90
20732;DHT22;10527;52.124;5.196;2022-10-31T05:10:52;11.20;99.90
20732;DHT22;10527;52.124;5.196;2022-10-31T05:13:19;11.20;99.90
20732;DHT22;10527;52.124;5.196;2022-10-31T05:15:47;11.10;99.90
20732;DHT22;10527;52.124;5.196;2022-10-31T05:18:13;11.10;99.90
20732;DHT22;10527;52.124;5.196;2022-10-31T05:20:40;11.10;99.90
20732;DHT22;10527;52.124;5.196;2022-10-31T05:23:12;11.00;99.90
20732;DHT22;10527;52.124;5.196;2022-10-31T05:25:39;11.10;99.90
20732;DHT22;10527;52.124;5.196;2022-10-31T05:28:07;11.00;99.90
20732;DHT22;10527;52.124;5.196;2022-10-31T05:30:34;11.00;99.90
20732;DHT22;10527;52.124;5.196;2022-10-31T05:33:02;11.00;99.90
20732;DHT22;10527;52.124;5.196;2022-10-31T05:35:31;10.90;99.90
20732;DHT22;10527;52.124;5.196;2022-10-31T05:37:59;10.90;99.90
20732;DHT22;10527;52.124;5.196;2022-10-31T05:40:28;10.90;99.90
20732;DHT22;10527;52.124;5.196;2022-10-31T05:42:56;11.00;99.90
20732;DHT22;10527;52.124;5.196;2022-10-31T05:45:25;11.00;99.90
20732;DHT22;10527;52.124;5.196;2022-10-31T05:48:00;11.00;99.90
20732;DHT22;10527;52.124;5.196;2022-10-31T05:50:30;10.90;99.90
20732;DHT22;10527;52.124;5.196;2022-10-31T05:53:04;10.80;99.90
20732;DHT22;10527;52.124;5.196;2022-10-31T05:55:32;10.80;99.90
20732;DHT22;10527;52.124;5.196;2022-10-31T05:57:59;10.80;99.90
20732;DHT22;10527;52.124;5.196;2022-10-31T06:00:27;10.80;99.90
20732;DHT22;10527;52.124;5.196;2022-10-31T06:03:02;10.80;99.90
20732;DHT22;10527;52.124;5.196;2022-10-31T06:05:35;10.80;99.90
20732;DHT22;10527;52.124;5.196;2022-10-31T06:08:01;10.70;99.90
20732;DHT22;10527;52.124;5.196;2022-10-31T06:10:29;10.80;99.90
20732;DHT22;10527;52.124;5.196;2022-10-31T06:12:56;10.80;99.90
20732;DHT22;10527;52.124;5.196;2022-10-31T06:15:23;10.80;99.90
20732;DHT22;10527;52.124;5.196;2022-10-31T06:17:58;10.60;99.90
20732;DHT22;10527;52.124;5.196;2022-10-31T06:20:29;10.70;99.90
20732;DHT22;10527;52.124;5.196;2022-10-31T06:22:55;10.60;99.90
20732;DHT22;10527;52.124;5.196;2022-10-31T06:25:26;10.60;99.90
20732;DHT22;10527;52.124;5.196;2022-10-31T06:27:54;10.60;99.90
20732;DHT22;10527;52.124;5.196;2022-10-31T06:30:21;10.70;99.90
20732;DHT22;10527;52.124;5.196;2022-10-31T06:32:48;10.60;99.90
20732;DHT22;10527;52.124;5.196;2022-10-31T06:35:16;10.60;99.90
20732;DHT22;10527;52.124;5.196;2022-10-31T06:37:43;10.70;99.90
20732;DHT22;10527;52.124;5.196;2022-10-31T06:40:17;10.70;99.90
20732;DHT22;10527;52.124;5.196;2022-10-31T06:42:44;10.60;99.90
20732;DHT22;10527;52.124;5.196;2022-10-31T06:45:10;10.60;99.90
20732;DHT22;10527;52.124;5.196;2022-10-31T06:47:37;10.60;99.90
20732;DHT22;10527;52.124;5.196;2022-10-31T06:50:24;10.60;99.90
20732;DHT22;10527;52.124;5.196;2022-10-31T06:52:58;10.70;99.90
20732;DHT22;10527;52.124;5.196;2022-10-31T06:55:26;10.70;99.90
20732;DHT22;10527;52.124;5.196;2022-10-31T06:57:54;10.80;99.90
20732;DHT22;10527;52.124;5.196;2022-10-31T07:00:29;10.80;99.90
20732;DHT22;10527;52.124;5.196;2022-10-31T07:03:01;10.90;99.90
20732;DHT22;10527;52.124;5.196;2022-10-31T07:05:30;10.90;99.90
20732;DHT22;10527;52.124;5.196;2022-10-31T07:08:01;11.00;99.90
20732;DHT22;10527;52.124;5.196;2022-10-31T07:10:31;11.10;99.90
20732;DHT22;10527;52.124;5.196;2022-10-31T07:13:11;11.10;99.90
20732;DHT22;10527;52.124;5.196;2022-10-31T07:15:42;11.10;99.90
20732;DHT22;10527;52.124;5.196;2022-10-31T07:18:13;11.20;99.90
20732;DHT22;10527;52.124;5.196;2022-10-31T07:20:40;11.20;99.90
20732;DHT22;10527;52.124;5.196;2022-10-31T07:23:08;11.40;99.90
20732;DHT22;10527;52.124;5.196;2022-10-31T07:25:56;11.40;99.90
20732;DHT22;10527;52.124;5.196;2022-10-31T07:28:25;11.40;99.90
20732;DHT22;10527;52.124;5.196;2022-10-31T07:30:56;11.40;99.90
20732;DHT22;10527;52.124;5.196;2022-10-31T07:33:24;11.40;99.90
20732;DHT22;10527;52.124;5.196;2022-10-31T07:35:54;11.40;99.90
20732;DHT22;10527;52.124;5.196;2022-10-31T07:38:20;11.40;99.90
20732;DHT22;10527;52.124;5.196;2022-10-31T07:40:58;11.40;99.90
20732;DHT22;10527;52.124;5.196;2022-10-31T07:43:25;11.40;99.90
20732;DHT22;10527;52.124;5.196;2022-10-31T07:45:56;11.50;99.90
20732;DHT22;10527;52.124;5.196;2022-10-31T07:48:23;11.50;99.90
20732;DHT22;10527;52.124;5.196;2022-10-31T07:50:49;11.50;99.90
20732;DHT22;10527;52.124;5.196;2022-10-31T07:53:16;11.50;99.90
20732;DHT22;10527;52.124;5.196;2022-10-31T07:55:43;11.50;99.90
20732;DHT22;10527;52.124;5.196;2022-10-31T07:58:15;11.70;99.90
20732;DHT22;10527;52.124;5.196;2022-10-31T08:00:44;11.70;99.90
20732;DHT22;10527;52.124;5.196;2022-10-31T08:03:14;11.70;99.90
20732;DHT22;10527;52.124;5.196;2022-10-31T08:05:47;11.80;99.90
20732;DHT22;10527;52.124;5.196;2022-10-31T08:08:14;11.80;99.90
20732;DHT22;10527;52.124;5.196;2022-10-31T08:10:42;11.80;99.90
20732;DHT22;10527;52.124;5.196;2022-10-31T08:13:11;11.90;99.90
20732;DHT22;10527;52.124;5.196;2022-10-31T08:15:40;12.00;99.90
20732;DHT22;10527;52.124;5.196;2022-10-31T08:18:13;12.00;99.90
20732;DHT22;10527;52.124;5.196;2022-10-31T08:20:41;12.10;99.90
20732;DHT22;10527;52.124;5.196;2022-10-31T08:23:10;12.10;99.90
20732;DHT22;10527;52.124;5.196;2022-10-31T08:25:38;12.20;99.90
20732;DHT22;10527;52.124;5.196;2022-10-31T08:28:08;12.20;99.90
20732;DHT22;10527;52.124;5.196;2022-10-31T08:30:37;12.20;99.90
20732;DHT22;10527;52.124;5.196;2022-10-31T08:33:08;12.40;99.90
20732;DHT22;10527;52.124;5.196;2022-10-31T08:35:39;12.30;99.90
20732;DHT22;10527;52.124;5.196;2022-10-31T08:38:09;12.40;99.90
20732;DHT22;10527;52.124;5.196;2022-10-31T08:40:37;12.50;99.90
20732;DHT22;10527;52.124;5.196;2022-10-31T08:43:12;12.40;99.90
20732;DHT22;10527;52.124;5.196;2022-10-31T08:45:42;12.50;99.90
20732;DHT22;10527;52.124;5.196;2022-10-31T08:48:12;12.60;99.90
20732;DHT22;10527;52.124;5.196;2022-10-31T08:50:43;12.60;99.90
20732;DHT22;10527;52.124;5.196;2022-10-31T08:53:15;12.70;99.90
20732;DHT22;10527;52.124;5.196;2022-10-31T08:55:45;12.60;99.90
20732;DHT22;10527;52.124;5.196;2022-10-31T08:58:15;12.70;99.90
20732;DHT22;10527;52.124;5.196;2022-10-31T09:00:53;12.70;99.90
20732;DHT22;10527;52.124;5.196;2022-10-31T09:03:23;12.70;99.90
20732;DHT22;10527;52.124;5.196;2022-10-31T09:05:59;12.80;99.90
20732;DHT22;10527;52.124;5.196;2022-10-31T09:08:29;12.80;99.90
20732;DHT22;10527;52.124;5.196;2022-10-31T09:10:59;12.80;99.90
20732;DHT22;10527;52.124;5.196;2022-10-31T09:13:26;12.90;99.90
20732;DHT22;10527;52.124;5.196;2022-10-31T09:15:55;12.90;99.90
20732;DHT22;10527;52.124;5.196;2022-10-31T09:18:24;13.10;99.90
20732;DHT22;10527;52.124;5.196;2022-10-31T09:21:00;13.20;99.90
20732;DHT22;10527;52.124;5.196;2022-10-31T09:23:28;13.30;99.90
20732;DHT22;10527;52.124;5.196;2022-10-31T09:25:55;13.30;99.90
20732;DHT22;10527;52.124;5.196;2022-10-31T09:28:23;13.50;99.90
20732;DHT22;10527;52.124;5.196;2022-10-31T09:30:52;13.60;99.90
20732;DHT22;10527;52.124;5.196;2022-10-31T09:33:36;13.60;99.90
20732;DHT22;10527;52.124;5.196;2022-10-31T09:36:03;13.80;99.90
20732;DHT22;10527;52.124;5.196;2022-10-31T09:38:30;13.90;99.90
20732;DHT22;10527;52.124;5.196;2022-10-31T09:43:54;14.00;99.90
20732;DHT22;10527;52.124;5.196;2022-10-31T09:46:43;14.00;99.90
20732;DHT22;10527;52.124;5.196;2022-10-31T09:52:42;14.00;99.90
20732;DHT22;10527;52.124;5.196;2022-10-31T09:55:36;14.00;99.90
20732;DHT22;10527;52.124;5.196;2022-10-31T09:58:18;13.90;99.90
20732;DHT22;10527;52.124;5.196;2022-10-31T10:00:50;14.00;99.90
20732;DHT22;10527;52.124;5.196;2022-10-31T10:06:14;14.10;99.90
20732;DHT22;10527;52.124;5.196;2022-10-31T10:08:45;14.00;99.90
20732;DHT22;10527;52.124;5.196;2022-10-31T10:11:22;14.00;99.90
20732;DHT22;10527;52.124;5.196;2022-10-31T10:14:17;14.10;99.90
20732;DHT22;10527;52.124;5.196;2022-10-31T10:20:13;14.20;99.90
20732;DHT22;10527;52.124;5.196;2022-10-31T10:25:40;14.30;99.90
20732;DHT22;10527;52.124;5.196;2022-10-31T10:31:03;14.30;99.90
20732;DHT22;10527;52.124;5.196;2022-10-31T10:33:38;14.40;99.90
20732;DHT22;10527;52.124;5.196;2022-10-31T10:36:20;14.40;99.90
20732;DHT22;10527;52.124;5.196;2022-10-31T10:38:54;14.50;99.90
20732;DHT22;10527;52.124;5.196;2022-10-31T10:41:31;14.40;99.90
20732;DHT22;10527;52.124;5.196;2022-10-31T10:44:01;14.50;99.90
20732;DHT22;10527;52.124;5.196;2022-10-31T10:49:40;14.50;99.90
20732;DHT22;10527;52.124;5.196;2022-10-31T10:55:27;14.70;99.90
20732;DHT22;10527;52.124;5.196;2022-10-31T10:57:59;14.80;99.90
20732;DHT22;10527;52.124;5.196;2022-10-31T11:03:07;14.90;99.90
20732;DHT22;10527;52.124;5.196;2022-10-31T11:05:44;15.00;99.90
20732;DHT22;10527;52.124;5.196;2022-10-31T11:08:34;15.10;99.90
20732;DHT22;10527;52.124;5.196;2022-10-31T11:11:18;15.10;99.90
20732;DHT22;10527;52.124;5.196;2022-10-31T11:17:28;15.20;99.90
20732;DHT22;10527;52.124;5.196;2022-10-31T11:22:48;15.30;99.90
20732;DHT22;10527;52.124;5.196;2022-10-31T11:25:28;15.30;99.90
20732;DHT22;10527;52.124;5.196;2022-10-31T11:28:05;15.30;99.90
20732;DHT22;10527;52.124;5.196;2022-10-31T11:30:43;15.40;99.90
20732;DHT22;10527;52.124;5.196;2022-10-31T11:33:34;15.40;99.90
20732;DHT22;10527;52.124;5.196;2022-10-31T11:38:52;15.40;99.90
20732;DHT22;10527;52.124;5.196;2022-10-31T11:41:32;15.60;99.90
20732;DHT22;10527;52.124;5.196;2022-10-31T11:44:25;15.60;99.90
20732;DHT22;10527;52.124;5.196;2022-10-31T11:46:56;15.70;99.90
20732;DHT22;10527;52.124;5.196;2022-10-31T11:49:54;15.60;99.90
20732;DHT22;10527;52.124;5.196;2022-10-31T11:52:29;15.50;99.90
20732;DHT22;10527;52.124;5.196;2022-10-31T11:55:15;15.50;99.90
20732;DHT22;10527;52.124;5.196;2022-10-31T11:57:47;15.60;99.90
20732;DHT22;10527;52.124;5.196;2022-10-31T12:00:36;15.60;99.90
20732;DHT22;10527;52.124;5.196;2022-10-31T12:05:55;15.70;99.90
20732;DHT22;10527;52.124;5.196;2022-10-31T12:08:30;15.70;99.90
20732;DHT22;10527;52.124;5.196;2022-10-31T12:17:20;15.80;99.90
20732;DHT22;10527;52.124;5.196;2022-10-31T12:26:16;15.70;99.90
20732;DHT22;10527;52.124;5.196;2022-10-31T12:29:05;15.80;99.90
20732;DHT22;10527;52.124;5.196;2022-10-31T12:44:30;16.00;99.90
20732;DHT22;10527;52.124;5.196;2022-10-31T12:56:58;16.10;99.90
20732;DHT22;10527;52.124;5.196;2022-10-31T12:59:46;16.10;99.90
20732;DHT22;10527;52.124;5.196;2022-10-31T13:02:39;16.20;99.90
20732;DHT22;10527;52.124;5.196;2022-10-31T13:05:19;16.30;99.90
20732;DHT22;10527;52.124;5.196;2022-10-31T13:08:30;16.20;99.90
20732;DHT22;10527;52.124;5.196;2022-10-31T13:11:16;16.30;99.90
20732;DHT22;10527;52.124;5.196;2022-10-31T13:14:19;16.20;99.90
20732;DHT22;10527;52.124;5.196;2022-10-31T13:16:55;16.20;99.90
20732;DHT22;10527;52.124;5.196;2022-10-31T13:19:41;16.10;99.90
20732;DHT22;10527;52.124;5.196;2022-10-31T13:22:24;16.20;99.90
20732;DHT22;10527;52.124;5.196;2022-10-31T13:25:03;16.10;99.90
20732;DHT22;10527;52.124;5.196;2022-10-31T13:27:48;16.20;99.90
20732;DHT22;10527;52.124;5.196;2022-10-31T13:30:24;16.20;99.90
20732;DHT22;10527;52.124;5.196;2022-10-31T13:36:18;16.10;99.90
20732;DHT22;10527;52.124;5.196;2022-10-31T13:39:18;16.20;99.90
20732;DHT22;10527;52.124;5.196;2022-10-31T13:41:58;16.10;99.90
20732;DHT22;10527;52.124;5.196;2022-10-31T13:44:35;16.20;99.90
20732;DHT22;10527;52.124;5.196;2022-10-31T13:47:24;16.20;99.90
20732;DHT22;10527;52.124;5.196;2022-10-31T13:50:25;16.20;99.90
20732;DHT22;10527;52.124;5.196;2022-10-31T13:53:35;16.20;99.90
20732;DHT22;10527;52.124;5.196;2022-10-31T13:58:40;16.20;99.90
20732;DHT22;10527;52.124;5.196;2022-10-31T14:01:23;16.20;99.90
20732;DHT22;10527;52.124;5.196;2022-10-31T14:04:06;16.20;99.90
20732;DHT22;10527;52.124;5.196;2022-10-31T14:14:52;16.20;99.90
20732;DHT22;10527;52.124;5.196;2022-10-31T14:17:45;16.20;99.90
20732;DHT22;10527;52.124;5.196;2022-10-31T14:22:57;16.10;99.90
20732;DHT22;10527;52.124;5.196;2022-10-31T14:25:36;16.20;99.90
20732;DHT22;10527;52.124;5.196;2022-10-31T14:28:22;16.10;99.90
20732;DHT22;10527;52.124;5.196;2022-10-31T14:30:59;16.20;99.90
20732;DHT22;10527;52.124;5.196;2022-10-31T14:33:28;16.20;99.90
20732;DHT22;10527;52.124;5.196;2022-10-31T14:36:05;16.20;99.90
20732;DHT22;10527;52.124;5.196;2022-10-31T14:38:53;16.20;99.90
20732;DHT22;10527;52.124;5.196;2022-10-31T14:47:31;16.10;99.90
20732;DHT22;10527;52.124;5.196;2022-10-31T14:50:56;16.20;99.90
20732;DHT22;10527;52.124;5.196;2022-10-31T14:53:33;16.20;99.90
20732;DHT22;10527;52.124;5.196;2022-10-31T14:56:09;16.20;99.90
20732;DHT22;10527;52.124;5.196;2022-10-31T14:58:40;16.20;99.90
20732;DHT22;10527;52.124;5.196;2022-10-31T15:04:04;16.20;99.90
20732;DHT22;10527;52.124;5.196;2022-10-31T15:10:23;16.20;99.90
20732;DHT22;10527;52.124;5.196;2022-10-31T15:13:17;16.20;99.90
20732;DHT22;10527;52.124;5.196;2022-10-31T15:15:55;16.10;99.90
20732;DHT22;10527;52.124;5.196;2022-10-31T15:18:26;16.10;99.90
20732;DHT22;10527;52.124;5.196;2022-10-31T15:20:56;16.10;99.90
20732;DHT22;10527;52.124;5.196;2022-10-31T15:23:25;16.10;99.90
20732;DHT22;10527;52.124;5.196;2022-10-31T15:26:01;16.00;99.90
20732;DHT22;10527;52.124;5.196;2022-10-31T15:28:42;16.00;99.90
20732;DHT22;10527;52.124;5.196;2022-10-31T15:31:16;16.00;99.90
20732;DHT22;10527;52.124;5.196;2022-10-31T15:33:55;16.00;99.90
20732;DHT22;10527;52.124;5.196;2022-10-31T15:36:27;15.90;99.90
20732;DHT22;10527;52.124;5.196;2022-10-31T15:38:57;16.00;99.90
20732;DHT22;10527;52.124;5.196;2022-10-31T15:41:49;15.90;99.90
20732;DHT22;10527;52.124;5.196;2022-10-31T15:44:24;15.80;99.90
20732;DHT22;10527;52.124;5.196;2022-10-31T15:47:03;15.80;99.90
20732;DHT22;10527;52.124;5.196;2022-10-31T15:54:50;15.70;99.90
20732;DHT22;10527;52.124;5.196;2022-10-31T15:57:19;15.70;99.90
20732;DHT22;10527;52.124;5.196;2022-10-31T15:59:48;15.70;99.90
20732;DHT22;10527;52.124;5.196;2022-10-31T16:02:23;15.70;99.90
20732;DHT22;10527;52.124;5.196;2022-10-31T16:05:00;15.70;99.90
20732;DHT22;10527;52.124;5.196;2022-10-31T16:07:29;15.70;99.90
20732;DHT22;10527;52.124;5.196;2022-10-31T16:10:00;15.70;99.90
20732;DHT22;10527;52.124;5.196;2022-10-31T16:12:36;15.60;99.90
20732;DHT22;10527;52.124;5.196;2022-10-31T16:15:15;15.70;99.90
20732;DHT22;10527;52.124;5.196;2022-10-31T16:17:46;15.60;99.90
20732;DHT22;10527;52.124;5.196;2022-10-31T16:20:29;15.70;99.90
20732;DHT22;10527;52.124;5.196;2022-10-31T16:22:59;15.70;99.90
20732;DHT22;10527;52.124;5.196;2022-10-31T16:25:38;15.60;99.90
20732;DHT22;10527;52.124;5.196;2022-10-31T16:28:17;15.60;99.90
20732;DHT22;10527;52.124;5.196;2022-10-31T16:30:54;15.70;99.90
20732;DHT22;10527;52.124;5.196;2022-10-31T16:33:31;15.60;99.90
20732;DHT22;10527;52.124;5.196;2022-10-31T16:36:00;15.60;99.90
20732;DHT22;10527;52.124;5.196;2022-10-31T16:38:49;15.60;99.90
20732;DHT22;10527;52.124;5.196;2022-10-31T16:41:16;15.60;99.90
20732;DHT22;10527;52.124;5.196;2022-10-31T16:43:43;15.50;99.90
20732;DHT22;10527;52.124;5.196;2022-10-31T16:46:25;15.50;99.90
20732;DHT22;10527;52.124;5.196;2022-10-31T16:48:54;15.50;99.90
20732;DHT22;10527;52.124;5.196;2022-10-31T16:51:21;15.50;99.90
20732;DHT22;10527;52.124;5.196;2022-10-31T16:53:51;15.50;99.90
20732;DHT22;10527;52.124;5.196;2022-10-31T16:56:28;15.30;99.90
20732;DHT22;10527;52.124;5.196;2022-10-31T16:59:03;15.40;99.90
20732;DHT22;10527;52.124;5.196;2022-10-31T17:01:36;15.30;99.90
20732;DHT22;10527;52.124;5.196;2022-10-31T17:04:11;15.40;99.90
20732;DHT22;10527;52.124;5.196;2022-10-31T17:06:41;15.30;99.90
20732;DHT22;10527;52.124;5.196;2022-10-31T17:09:08;15.40;99.90
20732;DHT22;10527;52.124;5.196;2022-10-31T17:11:35;15.40;99.90
20732;DHT22;10527;52.124;5.196;2022-10-31T17:14:03;15.40;99.90
20732;DHT22;10527;52.124;5.196;2022-10-31T17:16:41;15.30;99.90
20732;DHT22;10527;52.124;5.196;2022-10-31T17:19:12;15.30;99.90
20732;DHT22;10527;52.124;5.196;2022-10-31T17:21:40;15.30;99.90
20732;DHT22;10527;52.124;5.196;2022-10-31T17:24:12;15.20;99.90
20732;DHT22;10527;52.124;5.196;2022-10-31T17:26:40;15.20;99.90
20732;DHT22;10527;52.124;5.196;2022-10-31T17:29:08;15.10;99.90
20732;DHT22;10527;52.124;5.196;2022-10-31T17:31:35;15.10;99.90
20732;DHT22;10527;52.124;5.196;2022-10-31T17:34:04;15.10;99.90
20732;DHT22;10527;52.124;5.196;2022-10-31T17:36:33;15.10;99.90
20732;DHT22;10527;52.124;5.196;2022-10-31T17:39:01;15.10;99.90
20732;DHT22;10527;52.124;5.196;2022-10-31T17:41:30;15.00;99.90
20732;DHT22;10527;52.124;5.196;2022-10-31T17:43:58;15.00;99.90
20732;DHT22;10527;52.124;5.196;2022-10-31T17:46:25;15.00;99.90
20732;DHT22;10527;52.124;5.196;2022-10-31T17:48:51;14.90;99.90
20732;DHT22;10527;52.124;5.196;2022-10-31T17:51:18;14.90;99.90
20732;DHT22;10527;52.124;5.196;2022-10-31T17:53:45;14.90;99.90
20732;DHT22;10527;52.124;5.196;2022-10-31T17:56:12;14.80;99.90
20732;DHT22;10527;52.124;5.196;2022-10-31T17:58:39;14.90;99.90
20732;DHT22;10527;52.124;5.196;2022-10-31T18:01:12;14.90;99.90
20732;DHT22;10527;52.124;5.196;2022-10-31T18:03:42;14.80;99.90
20732;DHT22;10527;52.124;5.196;2022-10-31T18:06:09;14.70;99.90
20732;DHT22;10527;52.124;5.196;2022-10-31T18:08:39;14.70;99.90
20732;DHT22;10527;52.124;5.196;2022-10-31T18:11:09;14.70;99.90
20732;DHT22;10527;52.124;5.196;2022-10-31T18:13:40;14.80;99.90
20732;DHT22;10527;52.124;5.196;2022-10-31T18:16:13;14.80;99.90
20732;DHT22;10527;52.124;5.196;2022-10-31T18:18:41;14.80;99.90
20732;DHT22;10527;52.124;5.196;2022-10-31T18:21:08;14.80;99.90
20732;DHT22;10527;52.124;5.196;2022-10-31T18:23:35;14.80;99.90
20732;DHT22;10527;52.124;5.196;2022-10-31T18:26:02;14.80;99.90